createdAt,value
2022-10-19T00:01:55.319Z,100.00
2022-10-19T00:06:57.026Z,100.00
2022-10-19T00:11:58.715Z,100.00
2022-10-19T00:17:00.390Z,100.00
2022-10-19T00:22:02.083Z,100.00
2022-10-19T00:27:03.912Z,100.00
2022-10-19T00:32:06.164Z,100.00
2022-10-19T00:37:07.821Z,100.00
2022-10-19T00:42:13.166Z,100.00
2022-10-19T00:47:15.436Z,100.00
2022-10-19T00:52:21.326Z,100.00
2022-10-19T00:57:23.634Z,100.00
2022-10-19T01:02:25.373Z,100.00
2022-10-19T01:07:27.808Z,100.00
2022-10-19T01:12:53.622Z,100.00
2022-10-19T01:18:07.194Z,100.00
2022-10-19T01:23:42.952Z,100.00
2022-10-19T01:28:57.730Z,100.00
2022-10-19T01:34:22.803Z,100.00
2022-10-19T01:39:44.232Z,100.00
2022-10-19T01:44:55.480Z,100.00
2022-10-19T01:50:03.324Z,100.00
2022-10-19T01:55:05.869Z,100.00
2022-10-19T02:00:10.856Z,100.00
2022-10-19T02:06:07.605Z,100.00
2022-10-19T02:11:09.532Z,100.00
2022-10-19T02:16:20.420Z,100.00
2022-10-19T02:21:22.127Z,100.00
2022-10-19T02:26:23.824Z,100.00
2022-10-19T02:31:26.357Z,100.00
2022-10-19T02:36:28.156Z,100.00
2022-10-19T02:41:36.162Z,100.00
2022-10-19T02:46:44.106Z,100.00
2022-10-19T02:52:01.407Z,100.00
2022-10-19T02:57:17.317Z,100.00
2022-10-19T03:02:20.984Z,100.00
2022-10-19T03:07:22.828Z,100.00
2022-10-19T03:12:24.517Z,100.00
2022-10-19T03:17:26.256Z,100.00
2022-10-19T03:22:27.921Z,100.00
2022-10-19T03:27:29.610Z,100.00
2022-10-19T03:32:31.295Z,100.00
2022-10-19T03:37:33.281Z,100.00
2022-10-19T03:42:35.153Z,100.00
2022-10-19T03:47:36.885Z,100.00
2022-10-19T03:52:38.676Z,100.00
2022-10-19T03:57:40.366Z,100.00
2022-10-19T04:02:42.071Z,100.00
2022-10-19T04:07:43.745Z,100.00
2022-10-19T04:12:45.471Z,100.00
2022-10-19T04:17:48.664Z,100.00
2022-10-19T04:22:52.924Z,100.00
2022-10-19T04:27:54.594Z,100.00
2022-10-19T04:32:56.280Z,100.00
2022-10-19T04:37:59.604Z,100.00
2022-10-19T04:43:01.294Z,100.00
2022-10-19T04:48:03.018Z,100.00
2022-10-19T04:53:04.717Z,100.00
2022-10-19T04:58:06.360Z,100.00
2022-10-19T05:03:08.285Z,100.00
2022-10-19T05:08:10.682Z,100.00
2022-10-19T05:13:12.363Z,100.00
2022-10-19T05:18:14.096Z,100.00
2022-10-19T05:23:15.812Z,100.00
2022-10-19T05:28:17.476Z,100.00
2022-10-19T05:33:19.160Z,100.00
2022-10-19T05:38:20.854Z,100.00
2022-10-19T05:43:22.588Z,100.00
2022-10-19T05:48:24.343Z,100.00
2022-10-19T05:53:26.249Z,100.00
2022-10-19T05:58:27.945Z,100.00
2022-10-19T06:03:30.515Z,100.00
2022-10-19T06:08:32.813Z,100.00
2022-10-19T06:13:34.849Z,100.00
2022-10-19T06:18:37.585Z,100.00
2022-10-19T06:23:39.392Z,100.00
2022-10-19T06:28:43.258Z,100.00
2022-10-19T06:33:48.645Z,100.00
2022-10-19T06:38:53.201Z,100.00
2022-10-19T06:43:55.934Z,100.00
2022-10-19T06:48:59.772Z,100.00
2022-10-19T06:54:01.686Z,98.13
2022-10-19T06:59:03.748Z,96.47
2022-10-19T07:04:05.599Z,94.41
2022-10-19T07:09:07.329Z,93.02
2022-10-19T07:14:09.270Z,92.23
2022-10-19T07:19:11.801Z,91.35
2022-10-19T07:24:13.500Z,91.50
2022-10-19T07:29:15.333Z,90.67
2022-10-19T07:34:17.093Z,89.44
2022-10-19T07:39:18.843Z,88.73
2022-10-19T07:44:20.533Z,89.27
2022-10-19T07:49:22.508Z,89.15
2022-10-19T07:54:24.710Z,89.22
2022-10-19T07:59:26.398Z,89.17
2022-10-19T08:04:59.593Z,87.33
2022-10-19T08:09:54.098Z,89.27
2022-10-19T08:14:56.129Z,89.69
2022-10-19T08:19:57.829Z,91.83
2022-10-19T08:24:59.548Z,93.06
2022-10-19T08:30:01.238Z,92.57
2022-10-19T08:35:05.986Z,92.58
2022-10-19T08:40:30.322Z,92.76
2022-10-19T08:45:43.469Z,91.66
2022-10-19T08:50:47.177Z,90.46
2022-10-19T08:56:04.776Z,89.20
2022-10-19T09:01:33.834Z,87.11
2022-10-19T09:06:52.618Z,87.41
2022-10-19T09:12:02.810Z,86.23
2022-10-19T09:17:12.546Z,85.84
2022-10-19T09:22:26.497Z,85.25
2022-10-19T09:27:38.044Z,85.35
2022-10-19T09:32:40.099Z,84.89
2022-10-19T09:37:48.527Z,81.31
2022-10-19T09:43:03.051Z,81.24
2022-10-19T09:48:16.809Z,84.06
2022-10-19T09:53:21.396Z,83.65
2022-10-19T09:58:29.140Z,81.29
2022-10-19T10:03:40.549Z,82.83
2022-10-19T10:08:48.719Z,78.74
2022-10-19T10:13:53.091Z,73.07
2022-10-19T10:19:05.837Z,73.66
2022-10-19T10:24:10.348Z,73.84
2022-10-19T10:29:30.554Z,73.10
2022-10-19T10:34:46.080Z,72.68
2022-10-19T10:39:57.898Z,74.79
2022-10-19T10:45:03.725Z,73.29
2022-10-19T10:50:06.994Z,74.25
2022-10-19T10:55:08.672Z,75.32
2022-10-19T11:00:20.428Z,74.33
2022-10-19T11:05:32.272Z,74.28
2022-10-19T11:10:39.462Z,75.65
2022-10-19T11:16:28.844Z,75.04
2022-10-19T11:21:44.634Z,77.68
2022-10-19T11:27:07.018Z,78.48
2022-10-19T11:32:29.036Z,78.38
2022-10-19T11:38:18.012Z,76.32
2022-10-19T11:43:48.790Z,74.72
2022-10-19T11:49:07.077Z,72.84
2022-10-19T11:54:36.404Z,71.47
2022-10-19T12:00:08.177Z,71.12
2022-10-19T12:05:43.846Z,71.69
2022-10-19T12:11:28.102Z,72.94
2022-10-19T12:16:38.037Z,71.08
2022-10-19T12:21:43.246Z,71.38
2022-10-19T12:26:46.256Z,70.08
2022-10-19T12:31:50.109Z,69.93
2022-10-19T12:37:13.141Z,68.87
2022-10-19T12:42:43.008Z,70.72
2022-10-19T12:48:11.274Z,70.41
2022-10-19T12:53:35.922Z,70.41
2022-10-19T12:58:46.678Z,69.96
2022-10-19T13:03:53.993Z,66.60
2022-10-19T13:08:59.646Z,67.21
2022-10-19T13:14:07.611Z,68.48
2022-10-19T13:19:15.090Z,69.71
2022-10-19T13:24:26.015Z,70.22
2022-10-19T13:29:39.368Z,71.34
2022-10-19T13:34:41.349Z,69.76
2022-10-19T13:39:43.077Z,68.16
2022-10-19T13:44:45.972Z,68.83
2022-10-19T13:50:21.011Z,68.76
2022-10-19T13:55:48.552Z,67.62
2022-10-19T14:01:36.502Z,68.71
2022-10-19T14:07:02.479Z,69.88
2022-10-19T14:12:25.107Z,68.71
2022-10-19T14:17:34.058Z,69.22
2022-10-19T14:22:36.416Z,68.42
2022-10-19T14:27:38.701Z,70.93
2022-10-19T14:37:47.360Z,71.21
2022-10-19T14:42:49.506Z,70.95
2022-10-19T14:47:56.857Z,72.64
2022-10-19T14:53:18.960Z,71.33
2022-10-19T14:58:23.754Z,70.95
2022-10-19T15:03:30.414Z,71.07
2022-10-19T15:08:43.792Z,71.98
2022-10-19T15:13:45.631Z,71.14
2022-10-19T15:18:50.106Z,71.73
2022-10-19T15:23:52.725Z,73.26
2022-10-19T15:29:07.122Z,72.04
2022-10-19T15:34:23.449Z,73.96
2022-10-19T15:39:38.930Z,73.22
2022-10-19T15:44:44.139Z,74.64
2022-10-19T15:49:45.897Z,76.70
2022-10-19T15:54:51.596Z,78.60
2022-10-19T15:59:54.594Z,77.72
2022-10-19T16:04:56.397Z,80.98
2022-10-19T16:09:58.790Z,80.51
2022-10-19T16:15:00.520Z,79.52
2022-10-19T16:20:02.190Z,80.66
2022-10-19T16:25:04.446Z,83.47
2022-10-19T16:30:07.071Z,84.02
2022-10-19T16:35:10.108Z,84.88
2022-10-19T16:40:12.131Z,85.00
2022-10-19T16:45:13.804Z,85.49
2022-10-19T16:50:15.548Z,84.99
2022-10-19T16:55:17.311Z,86.43
2022-10-19T17:00:19.077Z,91.10
2022-10-19T17:05:20.790Z,91.76
2022-10-19T17:10:22.471Z,92.25
2022-10-19T17:15:41.994Z,93.58
2022-10-19T17:20:44.845Z,94.71
2022-10-19T17:25:47.973Z,93.02
2022-10-19T17:30:50.244Z,93.82
2022-10-19T17:35:51.984Z,95.10
2022-10-19T17:40:53.791Z,94.93
2022-10-19T17:46:00.214Z,96.54
2022-10-19T17:51:05.575Z,97.95
2022-10-19T17:56:07.875Z,100.00
2022-10-19T18:01:10.571Z,100.00
2022-10-19T18:06:35.669Z,100.00
2022-10-19T18:11:41.249Z,100.00
2022-10-19T18:16:45.752Z,100.00
2022-10-19T18:21:47.850Z,100.00
2022-10-19T18:26:51.158Z,100.00
2022-10-19T18:31:53.781Z,100.00
2022-10-19T18:36:55.820Z,100.00
2022-10-19T18:41:57.548Z,100.00
2022-10-19T18:46:59.221Z,100.00
2022-10-19T18:52:00.884Z,100.00
2022-10-19T18:57:02.589Z,100.00
2022-10-19T19:02:05.869Z,100.00
2022-10-19T19:07:07.636Z,100.00
2022-10-19T19:12:09.759Z,100.00
2022-10-19T19:17:11.507Z,100.00
2022-10-19T19:22:13.201Z,100.00
2022-10-19T19:27:14.884Z,100.00
2022-10-19T19:32:18.849Z,100.00
2022-10-19T19:37:20.506Z,100.00
2022-10-19T19:42:25.674Z,100.00
2022-10-19T19:47:29.523Z,100.00
2022-10-19T19:52:31.187Z,100.00
2022-10-19T19:57:33.102Z,100.00
2022-10-19T20:02:37.377Z,100.00
2022-10-19T20:07:39.075Z,100.00
2022-10-19T20:12:40.742Z,100.00
2022-10-19T20:17:42.866Z,100.00
2022-10-19T20:22:48.499Z,100.00
2022-10-19T20:27:50.221Z,100.00
2022-10-19T20:32:54.751Z,100.00
2022-10-19T20:37:58.550Z,100.00
2022-10-19T20:43:00.261Z,100.00
2022-10-19T20:48:01.924Z,100.00
2022-10-19T20:53:03.613Z,100.00
2022-10-19T20:58:05.298Z,100.00
2022-10-19T21:03:06.986Z,100.00
2022-10-19T21:08:09.578Z,100.00
2022-10-19T21:13:11.277Z,100.00
2022-10-19T21:18:12.924Z,100.00
2022-10-19T21:23:14.714Z,100.00
2022-10-19T21:28:16.384Z,100.00
2022-10-19T21:33:18.207Z,100.00
2022-10-19T21:38:19.871Z,100.00
2022-10-19T21:43:21.535Z,100.00
2022-10-19T21:48:23.671Z,100.00
2022-10-19T21:53:25.568Z,100.00
2022-10-19T21:58:27.244Z,100.00
2022-10-19T22:03:28.896Z,100.00
2022-10-19T22:08:30.669Z,100.00
2022-10-19T22:13:33.008Z,100.00
2022-10-19T22:18:34.824Z,100.00
2022-10-19T22:23:36.517Z,100.00
2022-10-19T22:28:38.183Z,100.00
2022-10-19T22:33:40.311Z,100.00
2022-10-19T22:38:42.429Z,100.00
2022-10-19T22:43:44.129Z,100.00
2022-10-19T22:48:45.821Z,100.00
2022-10-19T22:53:47.500Z,100.00
2022-10-19T22:58:49.616Z,100.00
2022-10-19T23:03:51.261Z,100.00
2022-10-19T23:08:53.865Z,100.00
2022-10-19T23:13:55.589Z,100.00
2022-10-19T23:18:57.253Z,100.00
2022-10-19T23:23:58.981Z,100.00
2022-10-19T23:29:00.611Z,100.00
2022-10-19T23:34:02.254Z,100.00
2022-10-19T23:39:04.063Z,100.00
2022-10-19T23:44:05.780Z,100.00
2022-10-19T23:49:07.599Z,100.00
2022-10-19T23:54:09.340Z,100.00
2022-10-19T23:59:11.128Z,100.00
